Decoded Metar for LEIB (IBIZA in SPAIN) (IATA:IBZ) | Meteo·Mobile Aviation Weather
aviador You're here:

LEIB Decoded Metar

IBIZA in SPAIN
Report Time2019-01-17 22:30:00
UTC Time2019-01-17 22:56:41
Flight Rules vfr VFR
Wind350° at 07 kt
W.Decomp.*RWY 06: 2.4 kt HW 6.6 kt LCW
W.Rank350° ranks 13
Current wind is above 350° avg. (5.9)
Visibility9999 m
Phenomena:N/A
Clouds:Few 018 Hf
Expected CloudBase > 2,400 ft AGL from Temp-Dew spread
CeilingNone
Temp12°C (ISA -3)
Dew Point06°C (67% RH)
AAT8.6°C
QNH1018 hPa
Density Alt-351 ft
Elevation39 ft
Report Wrong Elevation
Raw Report
LEIB 172230Z 35007KT 320V020 9999 FEW018 12/06 Q1018 NOSIG=

Extra information for LEIB:More info

Metar Taf Metar & Taf Last 4 Metars F.Rules Stats Wind Profile Meteogram Temp Stats Airport Information Weather charts Add Link Nearby VenuesMetar ALERT Operation Metar Decoded Social comments